Latest Weather Observations for Hervey Bay

IDQ60801

Issued at 10:02 am EST Sunday 5 July 2015 (issued every 30 minutes, with the page automatically refreshed every 10 minutes)

About weather observations | Map of weather stations | Latest weather observations for QLD | Other Formats
Station Details ID: 040405 Name: HERVEY BAY AIRPORT Lat: -25.32 Lon: 152.88 Height: 12.98 m
Data from the previous 72 hours. | See also: Recent months at Hervey Bay
Date/Time
EST
Temp
°C
App
Temp
°C
Dew
Point
Rel
Hum
%
Delta-T
°C
Wind Press
QNH
hPa
Press
MSL
hPa
Rain
since 9 am
mm
Dir
 
Spd
km/h
Gust
km/h
Spd
kts
Gust
kts
05/10:00am 19.4 18.2 14.0 71 3.1 S 13 17 7 9 1022.8 1022.8 0.0
05/09:30am 18.6 17.7 13.7 73 2.8 SSW 11 17 6 9 1022.8 1022.8 0.0
05/09:00am 17.5 16.7 14.0 80 2.0 SSW 11 13 6 7 1022.6 1022.6 0.6
05/08:30am 16.8 17.0 14.1 84 1.5 S 6 9 3 5 1022.4 1022.4 0.6
05/08:00am 16.3 16.1 13.6 84 1.5 SSW 7 11 4 6 1022.0 1022.0 0.6
05/07:30am 15.7 15.6 13.9 89 1.0 SSW 7 9 4 5 1021.7 1021.7 0.6
05/07:00am 15.3 16.5 13.8 91 0.8 CALM 0 0 0 0 1021.4 1021.4 0.6
05/06:30am 15.2 15.2 13.6 90 0.9 SSW 6 6 3 3 1021.1 1021.1 0.6
05/05:30am 15.4 14.9 13.9 91 0.8 SSW 9 13 5 7 1020.4 1020.4 0.6
05/05:00am 15.3 15.2 13.8 91 0.8 SSW 7 11 4 6 1020.2 1020.2 0.6
05/04:30am 15.3 15.2 13.8 91 0.8 SSW 7 9 4 5 1020.1 1020.1 0.6
05/04:00am 15.2 15.0 13.7 91 0.8 SSW 7 9 4 5 1020.2 1020.2 0.6
05/03:30am 15.0 14.8 13.7 92 0.7 SSE 7 9 4 5 1020.4 1020.4 0.6
05/03:00am 14.9 15.6 13.4 91 0.8 WSW 2 6 1 3 1020.4 1020.4 0.6
05/02:30am 15.3 16.1 13.7 90 0.9 WSW 2 7 1 4 1020.6 1020.6 0.6
05/02:00am 15.5 15.4 13.9 90 0.9 SW 7 9 4 5 1020.9 1020.9 0.6
05/01:30am 15.8 15.0 14.0 89 1.0 SW 11 17 6 9 1021.1 1021.1 0.6
05/01:00am 15.9 15.2 14.3 90 0.9 SSW 11 15 6 8 1021.5 1021.5 0.6
05/12:30am 15.5 15.1 14.0 91 0.8 S 9 13 5 7 1021.7 1021.7 0.6
 
Date/Time
EST
Temp
°C
App
Temp
°C
Dew
Point
Rel
Hum
%
Delta-T
°C
Wind Press
QNH
hPa
Press
MSL
hPa
Rain
since 9 am
mm
Dir
 
Spd
km/h
Gust
km/h
Spd
kts
Gust
kts
04/11:30pm 15.7 15.7 14.2 91 0.9 NW 7 11 4 6 1022.2 1022.2 0.6
04/11:00pm 15.9 16.3 14.8 93 0.6 N 6 7 3 4 1022.4 1022.4 0.6
04/10:30pm 15.7 15.4 14.4 92 0.7 NNW 9 9 5 5 1022.4 1022.4 0.4
04/10:00pm 15.3 15.4 14.0 92 0.7 W 6 7 3 4 1022.4 1022.4 0.0
04/09:30pm 15.1 16.2 13.6 91 0.8 CALM 0 0 0 0 1022.3 1022.3 0.0
04/09:00pm 15.1 15.2 13.8 92 0.7 SE 6 9 3 5 1022.3 1022.3 0.0
04/08:30pm 14.4 14.0 13.1 92 0.7 SSW 7 7 4 4 1022.1 1022.1 0.0
04/08:00pm 13.8 13.4 12.9 94 0.5 SSW 7 9 4 5 1021.9 1021.9 0.0
04/07:30pm 12.9 13.0 11.5 91 0.7 SW 2 7 1 4 1021.9 1021.9 0.0
04/07:00pm 13.1 12.4 11.5 90 0.8 WSW 6 7 3 4 1021.6 1021.6 0.0
04/06:30pm 13.7 13.0 11.9 89 1.0 SSW 7 7 4 4 1021.2 1021.2 0.0
04/06:00pm 14.5 13.7 11.6 83 1.5 SSE 7 9 4 5 1020.8 1020.8 0.0
04/05:30pm 16.6 16.3 12.8 78 2.1 SSE 6 7 3 4 1020.4 1020.4 0.0
04/05:00pm 18.0 17.3 13.1 73 2.7 SE 9 15 5 8 1020.1 1020.1 0.0
04/04:30pm 18.9 17.5 13.3 70 3.2 SE 13 20 7 11 1019.8 1019.8 0.0
04/04:00pm 19.5 17.3 13.2 67 3.6 SE 17 22 9 12 1019.5 1019.5 0.0
04/03:30pm 20.3 18.2 13.5 65 3.9 SE 17 24 9 13 1019.5 1019.5 0.0
04/03:00pm 20.6 18.7 13.1 62 4.3 SE 15 24 8 13 1019.4 1019.4 0.0
04/02:30pm 20.9 18.9 12.8 60 4.6 SE 15 28 8 15 1019.6 1019.6 0.0
04/02:00pm 21.1 18.3 12.5 58 4.8 SE 19 26 10 14 1019.7 1019.7 0.0
04/01:30pm 21.0 18.1 12.4 58 4.8 SE 19 28 10 15 1019.8 1019.8 0.0
04/01:00pm 20.9 18.9 12.8 60 4.6 SE 15 22 8 12 1020.0 1020.0 0.0
04/12:30pm 20.7 18.0 12.9 61 4.4 SSE 19 28 10 15 1020.4 1020.4 0.0
04/12:00pm 21.1 19.1 13.8 63 4.2 S 17 24 9 13 1020.9 1020.9 0.0
04/11:30am 20.1 18.1 12.6 62 4.2 S 15 24 8 13 1021.4 1021.4 0.0
04/11:00am 19.3 16.8 12.3 64 3.9 S 17 24 9 13 1021.9 1021.9 0.0
04/10:30am 19.2 17.4 12.2 64 3.9 S 13 20 7 11 1022.3 1022.3 0.0
04/10:00am 18.5 16.3 12.0 66 3.6 S 15 22 8 12 1022.6 1022.6 0.0
04/09:30am 17.3 14.3 10.7 65 3.5 S 17 28 9 15 1022.9 1022.9 0.0
04/09:00am 16.5 13.7 10.1 66 3.4 S 15 22 8 12 1022.8 1022.8 0.2
04/08:30am 16.1 12.9 10.0 67 3.2 SSW 17 28 9 15 1022.6 1022.6 0.2
04/08:00am 14.2 11.3 9.8 75 2.3 SSW 15 22 8 12 1022.7 1022.7 0.2
04/07:30am 13.4 10.8 9.5 77 2.0 SW 13 19 7 10 1022.6 1022.6 0.2
04/07:00am 12.7 9.3 9.3 80 1.7 SSW 17 22 9 12 1022.2 1022.2 0.2
04/06:30am 12.3 9.6 9.1 81 1.6 SW 13 17 7 9 1022.0 1022.0 0.2
04/06:00am 12.1 9.4 9.1 82 1.5 SSW 13 17 7 9 1021.7 1021.7 0.2
04/05:30am 11.6 8.4 8.6 82 1.5 SSW 15 20 8 11 1021.5 1021.5 0.2
04/05:00am 11.3 8.4 8.2 81 1.5 SSW 13 19 7 10 1021.3 1021.3 0.2
04/04:30am 11.4 8.9 8.1 80 1.6 SSW 11 15 6 8 1021.2 1021.2 0.2
04/04:00am 11.6 9.1 8.1 79 1.7 SSW 11 15 6 8 1021.2 1021.2 0.2
04/03:30am 12.0 10.0 8.5 79 1.7 SW 9 11 5 6 1021.2 1021.2 0.2
04/03:00am 12.4 10.4 8.7 78 1.8 SSW 9 13 5 7 1021.1 1021.1 0.2
04/02:30am 12.6 10.3 8.9 78 1.9 SW 11 17 6 9 1021.0 1021.0 0.2
04/02:00am 12.9 10.9 8.8 76 2.0 SW 9 13 5 7 1021.2 1021.2 0.2
04/01:30am 14.2 12.3 9.2 72 2.5 SSW 9 15 5 8 1021.4 1021.4 0.2
04/01:00am 14.5 12.9 10.3 76 2.2 SSW 9 15 5 8 1021.5 1021.5 0.2
04/12:30am 14.1 12.2 10.5 79 1.9 SSW 11 15 6 8 1021.5 1021.5 0.2
04/12:00am 13.6 11.2 10.0 79 1.9 SSW 13 19 7 10 1021.6 1021.6 0.2
 
Date/Time
EST
Temp
°C
App
Temp
°C
Dew
Point
Rel
Hum
%
Delta-T
°C
Wind Press
QNH
hPa
Press
MSL
hPa
Rain
since 9 am
mm
Dir
 
Spd
km/h
Gust
km/h
Spd
kts
Gust
kts
03/11:30pm 13.7 10.8 9.7 77 2.1 SSW 15 22 8 12 1021.7 1021.7 0.2
03/11:00pm 13.4 10.8 9.3 76 2.1 SSW 13 19 7 10 1021.9 1021.9 0.2
03/10:30pm 13.8 10.9 9.5 75 2.2 SSW 15 20 8 11 1022.0 1022.0 0.2
03/10:00pm 13.6 11.4 9.3 75 2.2 SSW 11 15 6 8 1022.1 1022.1 0.2
03/09:30pm 13.9 12.0 9.1 73 2.4 SSW 9 11 5 6 1022.3 1022.3 0.2
03/09:00pm 13.9 12.1 9.3 74 2.3 SSW 9 13 5 7 1022.4 1022.4 0.2
03/08:30pm 13.4 11.2 9.3 76 2.1 SSW 11 15 6 8 1022.1 1022.1 0.2
03/08:00pm 13.7 11.5 9.4 75 2.2 SSW 11 15 6 8 1022.3 1022.3 0.2
03/07:30pm 13.7 11.5 9.2 74 2.3 SSW 11 15 6 8 1022.0 1022.0 0.2
03/07:00pm 14.3 12.2 9.9 75 2.3 SW 11 13 6 7 1022.0 1022.0 0.2
03/06:30pm 13.2 11.4 9.6 79 1.8 SW 9 11 5 6 1021.9 1021.9 0.2
03/06:00pm 14.6 12.9 9.8 73 2.5 SSW 9 11 5 6 1021.7 1021.7 0.2
03/05:30pm 15.1 12.8 9.0 67 3.1 SSW 11 13 6 7 1021.2 1021.2 0.2
03/05:00pm 16.7 14.4 7.6 55 4.6 S 9 13 5 7 1020.7 1020.7 0.2
03/04:30pm 18.4 14.6 3.8 38 6.9 S 13 20 7 11 1020.2 1020.2 0.2
03/04:00pm 18.9 14.8 4.3 38 6.9 S 15 24 8 13 1020.1 1020.1 0.2
03/03:30pm 19.4 14.9 4.3 37 7.2 S 17 26 9 14 1019.8 1019.8 0.2
03/03:00pm 19.3 15.2 8.0 48 5.8 S 19 28 10 15 1019.7 1019.7 0.2
03/02:30pm 19.7 15.9 9.9 53 5.2 SSE 20 41 11 22 1019.5 1019.5 0.2
03/02:00pm 19.8 16.2 10.0 53 5.2 S 19 28 10 15 1019.5 1019.5 0.2
03/01:30pm 19.4 15.2 9.6 53 5.2 S 22 32 12 17 1019.6 1019.6 0.2
03/01:00pm 19.0 14.7 9.2 53 5.1 SSW 22 33 12 18 1019.7 1019.7 0.2
03/12:30pm 18.5 13.7 8.7 53 5.1 S 24 33 13 18 1020.1 1020.1 0.2
03/12:00pm 17.9 13.0 8.5 54 4.8 SSW 24 35 13 19 1020.3 1020.3 0.0
03/11:30am 16.9 11.8 7.5 54 4.7 S 24 41 13 22 1020.9 1020.9 0.0
03/11:00am 15.9 10.5 6.3 53 4.6 S 24 39 13 21 1021.3 1021.3 0.0
03/10:30am 15.4 10.9 5.9 53 4.6 SSW 19 32 10 17 1021.7 1021.7 0.0
03/10:00am 14.3 9.4 4.9 53 4.4 SSW 20 28 11 15 1021.9 1021.9 0.0
03/09:30am 13.4 8.7 5.1 57 3.9 SSW 19 28 10 15 1021.8 1021.8 0.0
03/09:00am 12.1 7.1 4.8 61 3.3 SSW 20 26 11 14 1021.6 1021.6 0.0
03/08:30am 10.3 6.9 5.9 74 2.0 SW 13 20 7 11 1021.3 1021.3 0.0
03/08:00am 8.9 4.5 4.5 74 1.9 SSW 17 22 9 12 1021.1 1021.1 0.0
03/07:30am 7.8 4.1 4.6 80 1.4 SSW 13 19 7 10 1020.8 1020.8 0.0
03/07:00am 6.9 4.0 4.7 86 1.0 SSW 9 13 5 7 1020.6 1020.6 0.0
03/06:30am 6.4 2.7 4.2 86 0.9 SSW 13 17 7 9 1020.3 1020.3 0.0
03/06:00am 6.5 3.2 4.3 86 0.9 SSW 11 17 6 9 1019.8 1019.8 0.0
03/05:30am 5.8 3.2 4.0 88 0.8 SW 7 13 4 7 1019.6 1019.6 0.0
03/05:00am 6.5 3.6 4.5 87 0.9 SSW 9 11 5 6 1019.5 1019.5 0.0
03/04:30am 5.3 1.9 4.1 92 0.5 SW 11 13 6 7 1019.0 1019.0 0.0
03/04:00am 5.5 2.8 3.8 89 0.7 SSE 7 9 4 5 1018.6 1018.6 0.0
03/03:30am 5.1 2.3 3.3 88 0.7 SSW 7 9 4 5 1018.9 1018.9 0.0
03/03:00am 6.7 4.1 4.0 83 1.2 SW 7 9 4 5 1019.3 1019.3 0.0
03/02:30am 7.7 5.2 4.5 80 1.4 SW 7 11 4 6 1019.6 1019.6 0.0
03/02:00am 8.6 5.6 4.2 74 1.9 SW 9 13 5 7 1019.6 1019.6 0.0
03/01:30am 9.1 5.8 4.7 74 2.0 SW 11 17 6 9 1019.8 1019.8 0.0
03/01:00am 8.7 5.2 5.3 79 1.5 WSW 13 17 7 9 1019.7 1019.7 0.0
03/12:30am 8.0 5.9 5.6 85 1.1 W 6 9 3 5 1019.8 1019.8 0.0
03/12:00am 6.5 4.1 5.1 91 0.6 W 7 11 4 6 1019.8 1019.8 0.0
 
Date/Time
EST
Temp
°C
App
Temp
°C
Dew
Point
Rel
Hum
%
Delta-T
°C
Wind Press
QNH
hPa
Press
MSL
hPa
Rain
since 9 am
mm
Dir
 
Spd
km/h
Gust
km/h
Spd
kts
Gust
kts
02/11:30pm 6.2 3.9 4.8 91 0.6 WSW 6 9 3 5 1020.0 1020.0 0.0
02/11:00pm 6.7 5.2 4.9 88 0.8 WNW 2 9 1 5 1020.2 1020.2 0.0
02/10:30pm 7.8 6.6 6.3 90 0.7 WSW 2 6 1 3 1020.4 1020.4 0.0
02/10:00pm 8.1 6.5 6.2 88 0.9 W 4 6 2 3 1020.4 1020.4 0.0
02/09:30pm 9.3 7.4 6.9 85 1.1 WSW 6 7 3 4 1020.4 1020.4 0.0
02/09:00pm 10.8 8.5 7.3 79 1.7 W 9 13 5 7 1020.2 1020.2 0.0
02/08:30pm 10.2 7.6 7.6 84 1.2 WSW 11 15 6 8 1020.0 1020.0 0.0
02/08:00pm 10.1 7.9 7.7 85 1.1 W 9 11 5 6 1019.8 1019.8 0.0
02/07:30pm 11.2 9.4 7.9 80 1.6 W 7 11 4 6 1019.6 1019.6 0.0
02/07:00pm 13.6 11.7 7.4 66 3.0 W 7 9 4 5 1019.7 1019.7 0.0
02/06:30pm 13.9 11.2 7.4 65 3.2 WSW 11 15 6 8 1019.2 1019.2 0.0
02/06:00pm 14.2 11.6 7.9 66 3.1 SW 11 15 6 8 1019.1 1019.1 0.0
02/05:30pm 14.8 12.4 8.7 67 3.1 WSW 11 13 6 7 1018.8 1018.8 0.0
02/05:00pm 17.5 15.4 8.4 55 4.7 WSW 9 13 5 7 1018.5 1018.5 0.0
02/04:30pm 19.6 17.4 8.0 47 6.0 WSW 9 15 5 8 1018.4 1018.4 0.0
02/04:00pm 20.5 18.0 8.2 45 6.4 WSW 11 17 6 9 1018.5 1018.5 0.0
02/03:30pm 20.8 17.7 7.1 41 7.0 SW 13 20 7 11 1018.3 1018.3 0.0
02/03:00pm 20.8 17.3 7.1 41 7.0 SW 15 20 8 11 1018.1 1018.1 0.0
02/02:30pm 20.9 17.8 7.2 41 7.0 WSW 13 19 7 10 1018.1 1018.1 0.0
02/02:00pm 21.0 16.4 5.8 37 7.6 WSW 19 32 10 17 1018.4 1018.4 0.0
02/01:30pm 20.8 16.3 6.0 38 7.4 SW 19 28 10 15 1018.8 1018.8 0.0
02/01:00pm 20.4 17.1 8.1 45 6.4 SW 15 24 8 13 1019.0 1019.0 0.0
02/12:30pm 20.0 16.3 8.0 46 6.2 WSW 17 28 9 15 1019.4 1019.4 0.0
02/12:00pm 19.8 16.3 8.8 49 5.7 SW 17 26 9 14 1020.1 1020.1 0.0
02/11:30am 18.7 14.7 8.9 53 5.1 SW 20 28 11 15 1020.9 1020.9 0.0
02/11:00am 19.1 15.4 9.6 54 5.0 SW 19 28 10 15 1021.4 1021.4 0.0
02/10:30am 17.9 14.2 9.3 57 4.5 SW 19 26 10 14 1021.9 1021.9 0.0

Other Formats:

Comma delimited format used in spreadsheet applications
http://www.bom.gov.au/fwo/IDQ60801/IDQ60801.95565.axf

JavaScript Object Notation format (JSON) in row-major order
http://www.bom.gov.au/fwo/IDQ60801/IDQ60801.95565.json